Time;durP1;ratioP1;P1;durP2;ratioP2;P2;SDS_P1;SDS_P2;PMS_P1;PMS_P2;Temp;Humidity;BMP_temperature;BMP_pressure;BME280_temperature;BME280_humidity;BME280_pressure;Samples;Min_cycle;Max_cycle;Signal;HPM_P1;HPM_P2
2022/06/27 00:00:57;;;;;;;1.48;1.20;;;;;;;24.81;47.93;99596.09;4460548;32;34010;-83
2022/06/27 00:03:26;;;;;;;2.85;1.23;;;;;;;24.62;48.35;99593.94;4462041;32;34558;-83
2022/06/27 00:05:56;;;;;;;1.10;0.98;;;;;;;24.84;47.54;99598.50;4449701;32;34625;-83
2022/06/27 00:08:25;;;;;;;2.12;0.90;;;;;;;24.79;47.73;99601.53;4446062;32;33641;-83
2022/06/27 00:10:55;;;;;;;2.28;1.08;;;;;;;24.74;47.87;99597.50;4446174;32;33385;-83
2022/06/27 00:13:24;;;;;;;1.98;1.00;;;;;;;24.66;47.90;99596.25;4450093;32;33026;-84
2022/06/27 00:15:52;;;;;;;1.95;1.17;;;;;;;24.59;48.21;99589.69;4460698;32;34840;-83
2022/06/27 00:18:21;;;;;;;2.87;1.20;;;;;;;24.69;47.99;99596.06;4465291;32;33119;-83
2022/06/27 00:20:51;;;;;;;1.37;0.98;;;;;;;24.58;48.52;99595.97;4460318;32;33169;-85
2022/06/27 00:23:20;;;;;;;2.28;1.40;;;;;;;24.53;48.37;99603.41;4448177;32;33650;-83
2022/06/27 00:25:49;;;;;;;1.50;1.00;;;;;;;24.47;48.02;99596.75;4445268;32;33691;-84
2022/06/27 00:28:19;;;;;;;1.50;1.08;;;;;;;24.53;47.96;99597.28;4447821;32;33940;-83
2022/06/27 00:30:47;;;;;;;1.90;1.27;;;;;;;24.36;48.48;99601.97;4450456;32;35115;-83
2022/06/27 00:33:16;;;;;;;1.08;0.95;;;;;;;24.51;48.27;99596.53;4444798;32;33577;-84
2022/06/27 00:35:45;;;;;;;1.90;0.98;;;;;;;24.24;48.96;99606.31;4444808;32;35067;-84
2022/06/27 00:38:14;;;;;;;2.58;1.20;;;;;;;23.88;49.91;99599.16;4444542;32;34431;-83
2022/06/27 00:40:43;;;;;;;2.87;1.17;;;;;;;24.05;49.18;99600.62;4444682;32;33193;-84
2022/06/27 00:43:12;;;;;;;1.30;1.00;;;;;;;24.08;49.43;99591.63;4450192;32;33956;-85
2022/06/27 00:45:43;;;;;;;3.75;1.45;;;;;;;24.18;49.30;99596.16;4444539;32;34243;-85
2022/06/27 00:48:12;;;;;;;1.75;0.90;;;;;;;24.34;49.25;99600.38;4453411;32;34031;-83
2022/06/27 00:50:41;;;;;;;1.73;1.10;;;;;;;24.22;49.41;99599.44;4460445;32;34198;-83
2022/06/27 00:53:10;;;;;;;2.58;1.33;;;;;;;24.24;49.43;99598.38;4459512;32;34333;-83
2022/06/27 00:55:40;;;;;;;1.10;1.00;;;;;;;24.14;49.42;99594.69;4466139;32;34785;-84
2022/06/27 00:58:09;;;;;;;1.23;0.90;;;;;;;24.01;49.86;99600.00;4464308;32;33654;-83
2022/06/27 01:00:38;;;;;;;2.35;1.23;;;;;;;24.17;49.63;99599.78;4459761;32;34018;-83
2022/06/27 01:03:08;;;;;;;1.70;1.20;;;;;;;24.06;50.03;99604.97;4460206;32;34556;-83
2022/06/27 01:05:37;;;;;;;2.60;1.27;;;;;;;23.93;50.45;99606.81;4459784;32;33397;-83
2022/06/27 01:08:06;;;;;;;2.15;1.00;;;;;;;23.82;50.76;99616.34;4459843;32;34574;-83
2022/06/27 01:10:35;;;;;;;1.45;0.93;;;;;;;24.05;50.21;99616.53;4465614;32;34072;-83
2022/06/27 01:13:04;;;;;;;1.65;1.25;;;;;;;24.02;50.45;99612.31;4459715;32;34618;-83
2022/06/27 01:15:33;;;;;;;2.30;1.37;;;;;;;23.93;50.49;99610.28;4445509;32;32499;-84
2022/06/27 01:18:02;;;;;;;2.72;1.20;;;;;;;23.97;50.55;99609.12;4459824;32;33555;-83
2022/06/27 01:20:33;;;;;;;1.83;1.12;;;;;;;24.02;50.58;99601.72;4459634;32;34095;-83
2022/06/27 01:23:03;;;;;;;2.08;1.30;;;;;;;23.82;51.11;99611.06;4455888;32;33296;-83
2022/06/27 01:25:32;;;;;;;2.53;1.58;;;;;;;23.93;50.77;99612.94;4444166;32;33034;-83
2022/06/27 01:28:01;;;;;;;1.70;1.27;;;;;;;23.93;50.63;99607.66;4445986;32;33589;-82
2022/06/27 01:30:30;;;;;;;3.42;1.50;;;;;;;23.77;51.15;99607.00;4446016;32;32796;-84
2022/06/27 01:32:59;;;;;;;1.92;1.25;;;;;;;23.91;51.01;99608.72;4446254;32;34266;-83
2022/06/27 01:35:28;;;;;;;3.50;1.30;;;;;;;23.84;51.21;99603.81;4451913;32;33720;-83
2022/06/27 01:37:57;;;;;;;1.65;1.20;;;;;;;23.85;51.36;99592.28;4446314;32;34281;-83
2022/06/27 01:40:29;;;;;;;2.35;1.42;;;;;;;23.93;50.90;99602.34;4448659;32;32528;-82
2022/06/27 01:42:59;;;;;;;2.30;1.25;;;;;;;23.91;50.94;99598.09;4446117;32;33855;-83
2022/06/27 01:45:29;;;;;;;2.37;1.35;;;;;;;23.84;51.17;99600.34;4446158;32;33962;-83
2022/06/27 01:47:58;;;;;;;3.93;1.57;;;;;;;23.78;51.24;99598.97;4446296;32;35699;-84
2022/06/27 01:50:27;;;;;;;1.70;1.17;;;;;;;23.95;51.02;99604.91;4452039;32;34402;-84
2022/06/27 01:52:56;;;;;;;2.33;1.20;;;;;;;23.79;51.33;99605.94;4445683;32;33900;-83
2022/06/27 01:55:25;;;;;;;3.78;1.80;;;;;;;23.79;51.19;99605.94;4446087;32;33895;-84
2022/06/27 01:57:56;;;;;;;2.35;1.30;;;;;;;23.76;51.42;99598.22;4446356;32;34524;-82
2022/06/27 02:00:25;;;;;;;2.78;1.55;;;;;;;23.78;51.58;99600.78;4452227;32;34278;-83
2022/06/27 02:02:57;;;;;;;2.12;1.27;;;;;;;23.72;51.75;99604.66;4466108;32;33897;-83
2022/06/27 02:05:27;;;;;;;2.20;1.40;;;;;;;23.78;51.50;99609.56;4453204;32;34422;-84
2022/06/27 02:07:57;;;;;;;2.12;1.33;;;;;;;23.76;51.64;99608.81;4446101;32;33971;-83
2022/06/27 02:10:26;;;;;;;2.83;1.85;;;;;;;23.67;51.95;99609.41;4446061;32;33042;-83
2022/06/27 02:12:56;;;;;;;1.87;1.08;;;;;;;23.74;51.97;99612.53;4458463;32;33855;-83
2022/06/27 02:15:25;;;;;;;2.58;1.20;;;;;;;23.58;52.29;99613.56;4466779;32;33552;-84
2022/06/27 02:17:54;;;;;;;1.42;1.10;;;;;;;23.51;52.61;99622.00;4466701;32;33529;-83
2022/06/27 02:20:23;;;;;;;3.08;1.65;;;;;;;23.50;52.43;99622.97;4446302;32;31830;-82
2022/06/27 02:22:53;;;;;;;2.42;1.60;;;;;;;23.51;52.19;99622.00;4446141;32;34405;-83
2022/06/27 02:25:21;;;;;;;2.67;1.35;;;;;;;23.66;51.61;99620.13;4447812;32;34032;-83
2022/06/27 02:27:53;;;;;;;2.70;1.58;;;;;;;23.57;51.74;99618.94;4446079;32;33853;-83
2022/06/27 02:30:23;;;;;;;1.42;1.33;;;;;;;23.56;51.85;99620.75;4451180;32;32968;-83
2022/06/27 02:32:52;;;;;;;2.17;1.30;;;;;;;23.63;51.49;99621.16;4445870;32;33570;-83
2022/06/27 02:35:21;;;;;;;2.45;1.30;;;;;;;23.66;51.53;99622.78;4445757;32;33910;-84
2022/06/27 02:37:53;;;;;;;2.93;1.70;;;;;;;23.58;51.84;99621.50;4445653;32;32735;-82
2022/06/27 02:40:23;;;;;;;2.58;1.60;;;;;;;23.71;51.18;99618.84;4448258;32;34303;-83
2022/06/27 02:42:54;;;;;;;2.78;1.40;;;;;;;23.82;50.96;99624.31;4452444;32;34348;-84
2022/06/27 02:45:24;;;;;;;3.47;1.80;;;;;;;23.68;51.31;99623.50;4446199;32;33689;-82
2022/06/27 02:47:54;;;;;;;2.08;1.17;;;;;;;23.77;51.02;99626.38;4446026;32;32964;-83
2022/06/27 02:50:26;;;;;;;3.72;1.55;;;;;;;23.76;50.87;99629.16;4451889;32;34334;-82
2022/06/27 02:53:01;;;;;;;3.12;1.50;;;;;;;23.77;51.22;99634.34;4461271;32;34403;-84
2022/06/27 02:55:35;;;;;;;2.53;1.33;;;;;;;23.42;52.33;99645.50;4461000;32;34430;-82
2022/06/27 02:58:10;;;;;;;2.37;1.50;;;;;;;23.64;51.72;99639.59;4466785;32;34402;-83
2022/06/27 03:00:41;;;;;;;2.62;1.55;;;;;;;23.71;51.88;99634.75;4446843;32;32399;-83
2022/06/27 03:03:14;;;;;;;2.28;1.23;;;;;;;23.65;52.15;99640.44;4461233;32;33825;-83
2022/06/27 03:05:56;;;;;;;;;;;;;;;23.70;52.09;99643.63;4461158;32;34135;-83
2022/06/27 03:08:25;;;;;;;2.78;1.35;;;;;;;23.79;51.76;99650.97;4450848;32;33888;-82
2022/06/27 03:10:55;;;;;;;4.70;1.30;;;;;;;23.85;51.52;99645.28;4445806;32;32008;-82
2022/06/27 03:13:25;;;;;;;2.73;1.30;;;;;;;23.82;51.64;99650.78;4451287;32;34066;-82
2022/06/27 03:15:57;;;;;;;3.12;2.35;;;;;;;24.00;51.27;99658.41;4445831;32;33632;-83
2022/06/27 03:18:26;;;;;;;2.25;1.60;;;;;;;24.00;51.49;99658.41;4445606;32;34548;-82
2022/06/27 03:20:57;;;;;;;3.45;1.65;;;;;;;23.71;52.38;99665.69;4445565;32;32753;-83
2022/06/27 03:23:30;;;;;;;4.20;1.62;;;;;;;23.90;51.85;99660.00;4446034;32;33656;-82
2022/06/27 03:26:00;;;;;;;2.05;1.60;;;;;;;23.88;51.85;99659.28;4448158;32;34075;-82
2022/06/27 03:28:30;;;;;;;2.67;1.35;;;;;;;23.98;51.75;99668.28;4455838;32;33894;-82
2022/06/27 03:31:00;;;;;;;3.67;1.90;;;;;;;24.03;51.74;99663.50;4461035;32;34411;-82
2022/06/27 03:33:30;;;;;;;3.33;1.58;;;;;;;23.93;51.97;99665.94;4459988;32;32824;-83
2022/06/27 03:36:03;;;;;;;2.92;1.55;;;;;;;24.23;51.06;99659.44;4440061;32;34086;-83
2022/06/27 03:38:32;;;;;;;3.10;1.30;;;;;;;24.36;50.72;99670.06;4460362;32;33425;-83
2022/06/27 03:41:03;;;;;;;3.37;1.23;;;;;;;23.94;52.04;99669.44;4466230;32;33090;-84
2022/06/27 03:43:33;;;;;;;3.40;1.50;;;;;;;23.97;51.95;99670.09;4461084;32;33861;-82
2022/06/27 03:46:04;;;;;;;2.37;1.50;;;;;;;24.11;51.57;99665.59;4460911;32;33084;-83
2022/06/27 03:51:21;;;;;;;1.35;1.10;;;;;;;24.20;51.45;99667.63;4460681;32;33860;-82
2022/06/27 03:53:51;;;;;;;2.95;1.58;;;;;;;24.13;51.69;99672.50;4460735;32;33842;-83
2022/06/27 03:56:20;;;;;;;3.72;1.42;;;;;;;24.24;51.43;99675.25;4466369;32;34050;-83
2022/06/27 03:58:49;;;;;;;2.58;1.48;;;;;;;24.17;51.86;99679.28;4460684;32;34431;-83
2022/06/27 04:01:20;;;;;;;4.05;1.87;;;;;;;24.19;51.96;99674.72;4460539;32;33990;-83
2022/06/27 04:03:49;;;;;;;2.40;1.52;;;;;;;24.46;51.08;99671.13;4460560;32;32996;-82
2022/06/27 04:06:18;;;;;;;1.70;1.20;;;;;;;24.35;51.46;99677.12;4443477;32;32270;-82
2022/06/27 04:08:47;;;;;;;2.90;1.40;;;;;;;24.35;51.50;99686.91;4450863;32;34521;-82
2022/06/27 04:11:16;;;;;;;3.47;1.20;;;;;;;24.37;51.32;99687.63;4445103;32;34204;-82
2022/06/27 04:13:45;;;;;;;2.47;1.42;;;;;;;24.57;51.03;99687.09;4445150;32;34636;-82
2022/06/27 04:16:21;;;;;;;4.35;1.60;;;;;;;24.67;51.07;99684.66;4445398;32;34377;-82
2022/06/27 04:18:55;;;;;;;1.65;1.15;;;;;;;24.68;50.70;99689.84;4445403;32;33798;-83
2022/06/27 04:21:25;;;;;;;2.60;1.45;;;;;;;24.70;50.68;99692.38;4444958;32;33880;-83
2022/06/27 04:23:54;;;;;;;2.42;1.25;;;;;;;24.89;50.43;99700.72;4450631;32;32712;-84
2022/06/27 04:26:24;;;;;;;2.47;1.37;;;;;;;24.63;50.83;99699.09;4432028;32;32171;-82
2022/06/27 04:28:55;;;;;;;1.70;1.15;;;;;;;24.98;49.80;99690.38;4445368;32;34570;-83
2022/06/27 04:31:25;;;;;;;1.92;1.30;;;;;;;24.97;50.39;99702.81;4446254;32;33203;-84
2022/06/27 04:33:54;;;;;;;3.10;1.65;;;;;;;24.87;50.04;99699.13;4458416;32;32863;-83
2022/06/27 04:36:24;;;;;;;2.80;1.73;;;;;;;25.12;49.77;99699.00;4461153;32;33930;-83
2022/06/27 04:38:53;;;;;;;3.97;1.55;;;;;;;25.09;49.99;99691.28;4444729;32;34563;-83
2022/06/27 04:41:29;;;;;;;2.00;1.40;;;;;;;25.15;49.77;99699.75;4460742;32;32128;-83
2022/06/27 04:43:57;;;;;;;1.37;1.10;;;;;;;25.40;49.07;99697.03;4460997;32;34641;-84
2022/06/27 04:46:28;;;;;;;2.08;1.48;;;;;;;25.82;48.44;99701.84;4460757;32;33814;-83
2022/06/27 04:48:58;;;;;;;1.80;1.15;;;;;;;26.78;46.05;99702.31;4460943;32;33978;-83
2022/06/27 04:51:27;;;;;;;3.25;1.70;;;;;;;27.41;44.27;99699.84;4467496;32;33205;-83
2022/06/27 04:53:56;;;;;;;4.22;1.73;;;;;;;28.03;42.34;99700.88;4461258;32;33793;-85
2022/06/27 04:56:25;;;;;;;2.78;1.33;;;;;;;27.94;41.76;99695.50;4462181;32;34017;-83
2022/06/27 04:58:54;;;;;;;2.05;1.05;;;;;;;28.62;40.86;99696.66;4462464;32;33946;-83
2022/06/27 05:01:23;;;;;;;1.50;1.00;;;;;;;29.09;39.64;99706.75;4460115;32;32947;-83
2022/06/27 05:03:54;;;;;;;2.12;1.30;;;;;;;29.45;39.24;99707.91;4467009;32;36156;-84
2022/06/27 05:06:23;;;;;;;1.37;1.10;;;;;;;30.00;37.88;99707.31;4463230;32;34651;-84
2022/06/27 05:08:54;;;;;;;2.08;1.17;;;;;;;29.89;37.77;99702.13;4460535;32;33380;-84
2022/06/27 05:11:23;;;;;;;2.12;1.45;;;;;;;29.87;37.31;99714.81;4460664;32;33663;-84
2022/06/27 05:13:52;;;;;;;1.12;0.90;;;;;;;29.60;38.06;99710.16;4462898;32;34639;-84
2022/06/27 05:16:21;;;;;;;4.25;1.52;;;;;;;29.67;38.14;99709.50;4467238;32;33457;-83
2022/06/27 05:18:50;;;;;;;2.92;1.20;;;;;;;29.90;38.14;99710.00;4467931;32;33871;-84
2022/06/27 05:21:41;;;;;;;2.35;1.10;;;;;;;29.78;37.65;99716.50;4463412;32;33074;-83
2022/06/27 05:24:11;;;;;;;;;;;;;;;29.64;38.25;99715.06;4464433;32;33916;-84
2022/06/27 05:26:40;;;;;;;5.45;1.30;;;;;;;29.50;38.45;99715.50;4463361;32;33357;-84
2022/06/27 05:29:09;;;;;;;2.17;1.20;;;;;;;29.20;39.14;99705.81;4462529;32;34411;-83
2022/06/27 05:31:41;;;;;;;2.37;1.30;;;;;;;29.30;39.34;99712.00;4467404;32;32971;-84
2022/06/27 05:34:10;;;;;;;2.87;1.60;;;;;;;29.35;38.74;99709.75;4467671;32;34155;-85
2022/06/27 05:36:41;;;;;;;4.32;1.80;;;;;;;29.17;39.33;99714.94;4454948;32;34032;-84
2022/06/27 05:39:10;;;;;;;2.10;1.08;;;;;;;29.18;39.41;99716.63;4451192;32;33507;-84
2022/06/27 05:41:39;;;;;;;1.92;1.27;;;;;;;29.37;39.02;99710.44;4478259;32;33158;-84
2022/06/27 05:44:09;;;;;;;2.70;1.40;;;;;;;29.35;38.95;99713.25;4479757;32;33617;-84
2022/06/27 05:46:40;;;;;;;1.73;1.10;;;;;;;29.30;39.27;99709.31;4485071;32;34026;-84
2022/06/27 05:49:11;;;;;;;3.50;1.73;;;;;;;29.20;39.13;99705.81;4455855;32;32527;-84
2022/06/27 05:51:41;;;;;;;2.55;1.17;;;;;;;29.52;38.54;99717.06;4452683;32;33302;-83
2022/06/27 05:54:12;;;;;;;2.65;1.40;;;;;;;29.76;38.48;99713.13;4463306;32;33032;-84
2022/06/27 05:56:41;;;;;;;;;;;;;;;29.93;37.96;99717.75;4467767;32;33755;-84
2022/06/27 05:59:10;;;;;;;3.37;1.52;;;;;;;29.39;38.57;99715.66;4485261;32;35080;-84
2022/06/27 06:01:40;;;;;;;3.12;2.00;;;;;;;29.38;38.64;99716.63;4479507;32;33316;-84
2022/06/27 06:04:09;;;;;;;2.60;1.15;;;;;;;28.92;40.20;99722.47;4468456;32;33802;-83
2022/06/27 06:06:40;;;;;;;2.40;1.10;;;;;;;28.93;40.04;99717.97;4449301;32;33665;-84
2022/06/27 06:09:12;;;;;;;3.05;1.25;;;;;;;28.88;40.31;99729.06;4449539;32;34443;-84
2022/06/27 06:11:41;;;;;;;4.65;1.40;;;;;;;28.41;41.42;99731.38;4448673;32;34081;-83
2022/06/27 06:14:10;;;;;;;2.73;1.33;;;;;;;28.56;41.08;99731.06;4464859;32;33529;-84
2022/06/27 06:16:41;;;;;;;1.98;1.30;;;;;;;28.33;41.80;99736.53;4462639;32;33879;-84
2022/06/27 06:19:12;;;;;;;3.70;1.60;;;;;;;27.84;42.67;99735.44;4463059;32;34337;-84
2022/06/27 06:21:41;;;;;;;2.80;1.75;;;;;;;27.77;43.67;99740.38;4462264;32;33013;-84
2022/06/27 06:24:11;;;;;;;2.50;1.15;;;;;;;27.96;42.74;99737.03;4462735;32;34316;-83
2022/06/27 06:26:41;;;;;;;1.92;1.20;;;;;;;27.55;44.01;99740.50;4469409;32;32739;-85
2022/06/27 06:29:15;;;;;;;2.40;1.30;;;;;;;27.84;43.57;99738.09;4464106;32;33928;-84
2022/06/27 06:31:46;;;;;;;1.92;1.00;;;;;;;27.75;42.85;99742.34;4464041;32;33074;-84
2022/06/27 06:34:20;;;;;;;3.25;1.50;;;;;;;27.11;44.56;99753.81;4462794;32;33944;-84
2022/06/27 06:36:49;;;;;;;3.55;1.55;;;;;;;27.48;43.93;99750.81;4462194;32;33946;-84
2022/06/27 06:39:19;;;;;;;1.48;0.93;;;;;;;27.83;43.79;99747.03;4462843;32;34547;-84
2022/06/27 06:41:48;;;;;;;;;;;;;;;28.10;42.90;99754.50;4468995;32;33211;-83
2022/06/27 06:44:19;;;;;;;2.22;1.20;;;;;;;28.22;42.79;99750.81;4463307;32;34293;-83
2022/06/27 06:46:54;;;;;;;2.40;1.50;;;;;;;28.37;42.29;99745.16;4463602;32;33750;-84
2022/06/27 06:49:25;;;;;;;3.97;1.55;;;;;;;28.16;42.58;99742.50;4438111;32;32138;-84
2022/06/27 06:51:54;;;;;;;1.85;1.10;;;;;;;28.35;42.27;99747.09;4448285;32;33555;-84
2022/06/27 06:54:26;;;;;;;1.98;1.30;;;;;;;28.51;42.46;99747.47;4453711;32;33811;-84
2022/06/27 06:56:55;;;;;;;3.33;1.40;;;;;;;28.45;42.12;99755.97;4448241;32;33982;-84
2022/06/27 06:59:24;;;;;;;2.42;1.23;;;;;;;28.43;41.88;99750.78;4448060;32;33654;-84
2022/06/27 07:01:53;;;;;;;2.33;1.60;;;;;;;28.48;42.05;99748.56;4448226;32;33415;-85
2022/06/27 07:04:23;;;;;;;2.80;1.27;;;;;;;28.52;42.41;99743.84;4447844;32;33324;-85
2022/06/27 07:06:53;;;;;;;3.55;1.17;;;;;;;28.36;42.65;99748.78;4447761;32;33706;-84
2022/06/27 07:09:21;;;;;;;5.20;1.85;;;;;;;28.61;42.29;99752.84;4453623;32;33735;-84
2022/06/27 07:11:55;;;;;;;3.15;1.42;;;;;;;28.29;42.66;99752.00;4455724;32;33348;-84
2022/06/27 07:14:27;;;;;;;2.30;1.12;;;;;;;28.71;41.81;99754.59;4462017;32;33525;-84
2022/06/27 07:16:58;;;;;;;3.30;1.50;;;;;;;29.02;42.00;99756.34;4463367;32;33976;-84
2022/06/27 07:19:29;;;;;;;2.62;1.10;;;;;;;28.86;41.82;99749.72;4463855;32;33619;-84
2022/06/27 07:21:57;;;;;;;;;;;;;;;28.76;41.86;99750.66;4469337;32;33440;-84
2022/06/27 07:24:26;;;;;;;2.65;1.52;;;;;;;29.02;41.66;99746.53;4463703;32;34144;-85
2022/06/27 07:26:59;;;;;;;2.25;1.30;;;;;;;28.98;41.15;99742.44;4462711;32;33962;-84
2022/06/27 07:29:28;;;;;;;2.78;1.42;;;;;;;28.88;41.88;99745.09;4463723;32;34003;-85
2022/06/27 07:31:57;;;;;;;2.95;1.58;;;;;;;28.87;41.76;99754.06;4463146;32;34268;-84
2022/06/27 07:34:25;;;;;;;2.22;1.25;;;;;;;29.17;41.25;99757.69;4465204;32;33843;-84
2022/06/27 07:36:56;;;;;;;3.35;1.80;;;;;;;29.08;41.29;99753.16;4468855;32;34008;-84
2022/06/27 07:39:26;;;;;;;3.00;1.48;;;;;;;28.78;41.48;99760.22;4461188;32;33352;-84
2022/06/27 07:41:57;;;;;;;3.72;1.67;;;;;;;28.92;41.34;99751.84;4452981;32;33816;-84
2022/06/27 07:44:25;;;;;;;2.03;1.25;;;;;;;29.20;40.97;99754.72;4448029;32;33613;-84
2022/06/27 07:46:56;;;;;;;2.22;1.80;;;;;;;29.29;40.50;99759.25;4451379;32;33622;-84
2022/06/27 07:49:25;;;;;;;1.60;1.17;;;;;;;29.50;40.29;99761.81;4453418;32;33664;-84
2022/06/27 07:51:54;;;;;;;3.55;1.58;;;;;;;29.40;40.81;99768.12;4450644;32;34140;-84
2022/06/27 07:54:23;;;;;;;2.83;1.40;;;;;;;29.35;40.20;99763.19;4450598;32;33919;-84
2022/06/27 07:56:53;;;;;;;2.42;1.40;;;;;;;29.58;40.39;99769.12;4456805;32;34122;-84
2022/06/27 07:59:32;;;;;;;2.08;1.17;;;;;;;29.37;40.67;99757.72;4447826;32;33844;-84
2022/06/27 08:02:02;;;;;;;2.33;1.60;;;;;;;29.10;40.77;99769.91;4449150;32;33513;-85
2022/06/27 08:04:31;;;;;;;2.65;1.48;;;;;;;29.34;39.92;99767.69;4454904;32;34697;-84
2022/06/27 08:07:02;;;;;;;1.95;1.12;;;;;;;29.74;40.35;99772.13;4447598;32;34745;-84
2022/06/27 08:09:31;;;;;;;6.22;1.75;;;;;;;30.03;39.82;99767.72;4447744;32;34388;-84
2022/06/27 08:12:01;;;;;;;1.85;1.10;;;;;;;30.01;39.33;99770.53;4448245;32;33708;-84
2022/06/27 08:14:33;;;;;;;2.67;1.58;;;;;;;30.11;38.81;99779.37;4447491;32;33909;-85
2022/06/27 08:17:01;;;;;;;;;;;;;;;30.20;38.40;99770.50;4467222;32;33385;-84
2022/06/27 08:19:30;;;;;;;2.05;1.37;;;;;;;30.19;38.61;99774.16;4458812;32;33786;-84
2022/06/27 08:21:59;;;;;;;4.20;1.35;;;;;;;30.28;39.17;99777.84;4458853;32;33170;-84
2022/06/27 08:24:28;;;;;;;4.00;2.10;;;;;;;30.59;37.82;99773.09;4454223;32;35011;-85
2022/06/27 08:26:58;;;;;;;3.47;1.92;;;;;;;30.33;37.52;99774.72;4458733;32;33727;-84
2022/06/27 08:29:27;;;;;;;2.60;1.08;;;;;;;30.39;37.76;99774.13;4459099;32;34285;-84
2022/06/27 08:31:58;;;;;;;4.22;1.17;;;;;;;30.49;37.16;99780.28;4459487;32;33194;-84
2022/06/27 08:34:27;;;;;;;3.97;1.27;;;;;;;30.88;36.50;99790.91;4460390;32;33249;-84
2022/06/27 08:36:55;;;;;;;5.25;1.75;;;;;;;31.09;36.14;99789.78;4460992;32;34595;-85
2022/06/27 08:39:25;;;;;;;4.20;2.03;;;;;;;31.10;36.74;99789.66;4463082;32;33636;-84
2022/06/27 08:41:55;;;;;;;5.03;1.75;;;;;;;31.18;36.58;99792.41;4462145;32;33895;-84
2022/06/27 08:44:25;;;;;;;6.53;1.53;;;;;;;31.39;35.51;99784.12;4463381;32;33941;-84
2022/06/27 08:46:54;;;;;;;;;;;;;;;31.66;34.49;99787.72;4457452;32;34698;-84
2022/06/27 08:49:24;;;;;;;1.20;1.00;;;;;;;31.64;34.09;99784.34;4462484;32;34966;-85
2022/06/27 08:51:55;;;;;;;2.70;1.25;;;;;;;31.75;34.69;99778.78;4462130;32;32602;-85
2022/06/27 08:54:24;;;;;;;3.08;1.20;;;;;;;31.91;34.04;99772.69;4456888;32;33376;-86
2022/06/27 08:56:53;;;;;;;2.50;1.02;;;;;;;31.70;34.61;99775.69;4456016;32;34156;-84
2022/06/27 08:59:22;;;;;;;2.00;1.05;;;;;;;31.81;34.58;99777.28;4453432;32;34563;-85
2022/06/27 09:01:50;;;;;;;1.80;1.02;;;;;;;32.16;33.92;99771.06;4454170;32;33461;-85
2022/06/27 09:04:20;;;;;;;3.47;1.42;;;;;;;32.30;34.37;99766.94;4459612;32;32079;-84
2022/06/27 09:06:57;;;;;;;2.25;1.20;;;;;;;32.61;33.47;99761.94;4455998;32;33556;-85
2022/06/27 09:09:27;;;;;;;1.83;0.93;;;;;;;31.82;33.93;99765.56;4448755;32;32567;-85
2022/06/27 09:11:57;;;;;;;1.27;0.93;;;;;;;31.93;33.08;99767.16;4465143;32;34264;-84
2022/06/27 09:14:37;;;;;;;0.65;0.65;;;;;;;32.10;33.58;99767.16;4459851;32;33979;-84
2022/06/27 09:17:09;;;;;;;1.83;1.10;;;;;;;31.93;33.36;99754.59;4456499;32;33927;-84
2022/06/27 09:19:47;;;;;;;3.90;1.40;;;;;;;32.17;33.75;99762.00;4450928;32;34348;-84
2022/06/27 09:22:19;;;;;;;1.00;0.85;;;;;;;32.59;32.76;99750.50;4452766;32;33482;-85
2022/06/27 09:25:05;;;;;;;1.87;0.98;;;;;;;32.65;32.61;99754.41;4448937;32;32980;-84
2022/06/27 09:27:39;;;;;;;4.00;1.35;;;;;;;32.56;33.07;99758.88;4466509;32;33879;-84
2022/06/27 09:30:27;;;;;;;2.97;1.15;;;;;;;32.93;32.42;99753.19;4459057;32;32851;-85
2022/06/27 09:32:59;;;;;;;3.55;1.30;;;;;;;33.08;32.55;99742.66;4459743;32;33580;-84
2022/06/27 09:35:31;;;;;;;2.28;1.10;;;;;;;33.23;31.27;99750.09;4460645;32;33857;-84
2022/06/27 09:38:04;;;;;;;2.67;1.33;;;;;;;33.31;30.81;99752.78;4458736;32;33998;-84
2022/06/27 09:40:34;;;;;;;1.95;1.27;;;;;;;33.41;30.92;99748.09;4459200;32;33838;-84
2022/06/27 09:43:07;;;;;;;2.22;1.10;;;;;;;33.61;30.68;99759.41;4465169;32;34058;-84
2022/06/27 09:45:37;;;;;;;4.70;1.95;;;;;;;33.17;30.74;99743.50;4461545;32;34491;-85
2022/06/27 09:48:17;;;;;;;7.70;1.10;;;;;;;33.47;30.73;99750.13;4459085;32;33751;-84
2022/06/27 09:50:47;;;;;;;2.17;1.35;;;;;;;33.48;30.75;99741.03;4460612;32;34561;-85
2022/06/27 09:53:18;;;;;;;1.55;1.08;;;;;;;33.65;31.47;99738.38;4462165;32;33293;-85
2022/06/27 09:55:48;;;;;;;2.42;1.08;;;;;;;33.70;30.73;99738.72;4462511;32;33638;-84
2022/06/27 09:58:17;;;;;;;1.20;0.85;;;;;;;33.91;30.62;99741.75;4466817;32;34015;-84
2022/06/27 10:00:47;;;;;;;1.50;1.00;;;;;;;34.15;30.18;99731.97;4453635;32;34078;-84
2022/06/27 10:03:17;;;;;;;4.47;1.62;;;;;;;34.02;30.37;99737.00;4457805;32;32034;-85
2022/06/27 10:05:47;;;;;;;1.30;0.73;;;;;;;34.00;30.18;99731.81;4459818;32;33980;-85
2022/06/27 10:08:16;;;;;;;1.35;0.90;;;;;;;34.04;29.58;99737.69;4460686;32;34838;-84
2022/06/27 10:11:06;;;;;;;1.92;1.10;;;;;;;34.34;30.00;99730.75;4461019;32;33776;-84
2022/06/27 10:13:40;;;;;;;2.53;1.12;;;;;;;34.58;28.35;99729.84;4454091;32;33945;-85
2022/06/27 10:16:13;;;;;;;0.93;0.73;;;;;;;34.56;28.97;99729.16;4454957;32;34035;-85
2022/06/27 10:18:55;;;;;;;0.90;0.62;;;;;;;34.71;28.36;99723.91;4454331;32;33860;-85
2022/06/27 10:21:25;;;;;;;1.92;0.93;;;;;;;34.73;28.38;99725.41;4463744;32;33183;-84
2022/06/27 10:24:43;;;;;;;3.17;1.25;;;;;;;34.82;27.98;99718.97;4463341;32;34828;-85
2022/06/27 10:27:30;;;;;;;2.40;0.85;;;;;;;34.81;27.84;99719.13;4462817;32;33405;-84
2022/06/27 10:29:59;;;;;;;2.55;0.80;;;;;;;34.84;26.98;99716.94;4448335;32;34851;-86
2022/06/27 10:32:41;;;;;;;1.25;0.80;;;;;;;34.85;27.01;99709.69;4448249;32;34503;-85
2022/06/27 10:35:15;;;;;;;1.85;0.95;;;;;;;35.35;26.95;99712.91;4470917;32;33220;-85
2022/06/27 10:37:46;;;;;;;2.55;1.10;;;;;;;35.54;27.18;99709.72;4470353;32;33755;-85
2022/06/27 10:40:33;;;;;;;;;;;;;;;35.60;26.81;99709.03;4460324;32;33956;-85
2022/06/27 10:43:03;;;;;;;3.28;1.05;;;;;;;35.73;27.13;99699.47;4463128;32;34804;-85
2022/06/27 10:45:32;;;;;;;2.30;0.80;;;;;;;35.85;26.36;99704.25;4462171;32;35187;-85
2022/06/27 10:48:01;;;;;;;2.28;1.08;;;;;;;35.75;25.67;99700.97;4459533;32;33564;-85
2022/06/27 10:50:42;;;;;;;3.55;1.10;;;;;;;35.79;26.14;99696.06;4465344;32;35066;-85
2022/06/27 10:53:24;;;;;;;1.87;0.90;;;;;;;35.81;26.23;99680.50;4465259;32;33605;-85
2022/06/27 10:55:54;;;;;;;2.58;1.00;;;;;;;36.21;26.01;99692.75;4462867;32;33248;-85
2022/06/27 10:58:28;;;;;;;0.77;0.75;;;;;;;36.27;25.27;99691.16;4462621;32;33420;-85
2022/06/27 11:01:12;;;;;;;6.30;1.35;;;;;;;36.28;25.10;99691.00;4461489;32;34725;-85
2022/06/27 11:03:44;;;;;;;2.53;1.17;;;;;;;36.30;25.46;99693.50;4461128;32;34695;-85
2022/06/27 11:06:14;;;;;;;1.37;0.80;;;;;;;36.45;25.18;99691.62;4462170;32;34286;-85
2022/06/27 11:08:44;;;;;;;3.27;1.13;;;;;;;36.71;24.67;99682.22;4469232;32;33841;-84
2022/06/27 11:11:17;;;;;;;3.22;0.90;;;;;;;36.81;24.30;99682.75;4463749;32;34796;-84
2022/06/27 11:13:48;;;;;;;6.90;1.70;;;;;;;36.74;24.66;99682.66;4462891;32;33926;-84
2022/06/27 11:16:19;;;;;;;4.05;1.10;;;;;;;37.08;23.87;99680.34;4458161;32;33195;-84
2022/06/27 11:18:50;;;;;;;4.55;1.20;;;;;;;37.02;24.48;99670.25;4462252;32;33826;-85
2022/06/27 11:21:20;;;;;;;2.55;1.33;;;;;;;37.13;23.77;99670.63;4457888;32;33289;-85
2022/06/27 11:23:57;;;;;;;1.70;0.90;;;;;;;37.52;24.01;99668.47;4460751;32;33525;-86
2022/06/27 11:26:29;;;;;;;2.90;1.10;;;;;;;37.39;23.73;99674.59;4461102;32;33366;-84
2022/06/27 11:32:00;;;;;;;5.30;1.87;;;;;;;37.91;23.56;99661.69;4456487;32;33426;-84
2022/06/27 11:34:38;;;;;;;3.65;1.42;;;;;;;38.14;22.86;99653.31;4447639;32;33294;-85
2022/06/27 11:37:09;;;;;;;1.33;0.77;;;;;;;37.94;23.05;99655.91;4455807;32;33808;-85
2022/06/27 11:39:39;;;;;;;2.97;1.05;;;;;;;37.95;22.94;99660.25;4467700;32;34724;-84
2022/06/27 11:42:10;;;;;;;1.75;0.82;;;;;;;38.11;22.14;99654.56;4460049;32;33622;-84
2022/06/27 11:45:04;;;;;;;2.03;0.65;;;;;;;37.92;22.67;99660.66;4463251;32;33894;-85
2022/06/27 11:47:34;;;;;;;1.30;0.90;;;;;;;37.94;22.44;99650.47;4453997;32;33087;-84
2022/06/27 11:50:05;;;;;;;2.97;0.95;;;;;;;37.71;23.14;99656.16;4460370;32;33771;-85
2022/06/27 11:52:37;;;;;;;4.68;1.20;;;;;;;38.13;23.48;99643.50;4460752;32;33557;-85
2022/06/27 11:55:08;;;;;;;1.52;0.88;;;;;;;38.25;22.94;99647.31;4457494;32;34324;-84
2022/06/27 11:57:37;;;;;;;5.87;2.15;;;;;;;38.38;22.57;99649.25;4455258;32;32504;-85